sensor_id;sensor_type;location;lat;lon;timestamp;temperature;humidity
46926;DHT22;32667;48.248;-1.700;2022-12-28T00:00:52;11.20;78.20
46926;DHT22;32667;48.248;-1.700;2022-12-28T00:03:18;11.30;78.30
46926;DHT22;32667;48.248;-1.700;2022-12-28T00:05:44;11.30;78.20
46926;DHT22;32667;48.248;-1.700;2022-12-28T00:08:10;11.30;78.20
46926;DHT22;32667;48.248;-1.700;2022-12-28T00:10:36;11.30;78.20
46926;DHT22;32667;48.248;-1.700;2022-12-28T00:13:02;11.30;78.20
46926;DHT22;32667;48.248;-1.700;2022-12-28T00:15:30;11.30;78.20
46926;DHT22;32667;48.248;-1.700;2022-12-28T00:17:58;11.30;78.20
46926;DHT22;32667;48.248;-1.700;2022-12-28T00:20:24;11.30;78.20
46926;DHT22;32667;48.248;-1.700;2022-12-28T00:22:50;11.30;78.10
46926;DHT22;32667;48.248;-1.700;2022-12-28T00:25:16;11.30;78.10
46926;DHT22;32667;48.248;-1.700;2022-12-28T00:27:41;11.30;78.10
46926;DHT22;32667;48.248;-1.700;2022-12-28T00:30:07;11.30;78.10
46926;DHT22;32667;48.248;-1.700;2022-12-28T00:32:33;11.30;78.10
46926;DHT22;32667;48.248;-1.700;2022-12-28T00:34:59;11.40;78.20
46926;DHT22;32667;48.248;-1.700;2022-12-28T00:37:25;11.40;78.10
46926;DHT22;32667;48.248;-1.700;2022-12-28T00:39:50;11.40;78.10
46926;DHT22;32667;48.248;-1.700;2022-12-28T00:42:16;11.40;78.00
46926;DHT22;32667;48.248;-1.700;2022-12-28T00:44:42;11.40;78.00
46926;DHT22;32667;48.248;-1.700;2022-12-28T00:47:07;11.40;78.00
46926;DHT22;32667;48.248;-1.700;2022-12-28T00:49:33;11.40;78.00
46926;DHT22;32667;48.248;-1.700;2022-12-28T00:51:59;11.50;78.00
46926;DHT22;32667;48.248;-1.700;2022-12-28T00:54:25;11.40;78.00
46926;DHT22;32667;48.248;-1.700;2022-12-28T00:56:50;11.50;78.00
46926;DHT22;32667;48.248;-1.700;2022-12-28T00:59:16;11.40;77.90
46926;DHT22;32667;48.248;-1.700;2022-12-28T01:01:42;11.50;78.00
46926;DHT22;32667;48.248;-1.700;2022-12-28T01:04:08;11.50;78.00
46926;DHT22;32667;48.248;-1.700;2022-12-28T01:06:33;11.50;78.00
46926;DHT22;32667;48.248;-1.700;2022-12-28T01:08:59;11.40;78.00
46926;DHT22;32667;48.248;-1.700;2022-12-28T01:11:28;11.50;78.10
46926;DHT22;32667;48.248;-1.700;2022-12-28T01:13:56;11.50;78.00
46926;DHT22;32667;48.248;-1.700;2022-12-28T01:16:25;11.40;78.10
46926;DHT22;32667;48.248;-1.700;2022-12-28T01:18:53;11.50;78.10
46926;DHT22;32667;48.248;-1.700;2022-12-28T01:21:23;11.50;78.10
46926;DHT22;32667;48.248;-1.700;2022-12-28T01:23:53;11.50;78.10
46926;DHT22;32667;48.248;-1.700;2022-12-28T01:26:20;11.50;78.20
46926;DHT22;32667;48.248;-1.700;2022-12-28T01:28:46;11.50;78.70
46926;DHT22;32667;48.248;-1.700;2022-12-28T01:31:14;11.50;78.10
46926;DHT22;32667;48.248;-1.700;2022-12-28T01:33:41;11.40;78.10
46926;DHT22;32667;48.248;-1.700;2022-12-28T01:36:08;11.40;78.10
46926;DHT22;32667;48.248;-1.700;2022-12-28T01:38:36;11.40;78.10
46926;DHT22;32667;48.248;-1.700;2022-12-28T01:41:02;11.40;78.10
46926;DHT22;32667;48.248;-1.700;2022-12-28T01:46:35;11.50;78.20
46926;DHT22;32667;48.248;-1.700;2022-12-28T01:49:04;11.50;78.10
46926;DHT22;32667;48.248;-1.700;2022-12-28T01:51:36;11.50;78.00
46926;DHT22;32667;48.248;-1.700;2022-12-28T01:54:06;11.50;78.00
46926;DHT22;32667;48.248;-1.700;2022-12-28T01:56:32;11.50;78.00
46926;DHT22;32667;48.248;-1.700;2022-12-28T01:58:58;11.50;78.10
46926;DHT22;32667;48.248;-1.700;2022-12-28T02:01:24;11.50;78.10
46926;DHT22;32667;48.248;-1.700;2022-12-28T02:03:51;11.50;78.00
46926;DHT22;32667;48.248;-1.700;2022-12-28T02:06:17;11.60;78.10
46926;DHT22;32667;48.248;-1.700;2022-12-28T02:11:13;11.60;78.00
46926;DHT22;32667;48.248;-1.700;2022-12-28T02:13:43;11.60;78.00
46926;DHT22;32667;48.248;-1.700;2022-12-28T02:16:10;11.70;78.00
46926;DHT22;32667;48.248;-1.700;2022-12-28T02:18:37;11.60;77.90
46926;DHT22;32667;48.248;-1.700;2022-12-28T02:21:17;11.60;77.90
46926;DHT22;32667;48.248;-1.700;2022-12-28T02:40:47;11.70;77.70
46926;DHT22;32667;48.248;-1.700;2022-12-28T02:43:14;11.80;77.70
46926;DHT22;32667;48.248;-1.700;2022-12-28T02:45:45;11.80;77.70
46926;DHT22;32667;48.248;-1.700;2022-12-28T02:48:45;11.80;78.20
46926;DHT22;32667;48.248;-1.700;2022-12-28T02:52:02;11.80;78.30
46926;DHT22;32667;48.248;-1.700;2022-12-28T02:55:00;11.80;77.70
46926;DHT22;32667;48.248;-1.700;2022-12-28T03:00:20;11.80;77.70
46926;DHT22;32667;48.248;-1.700;2022-12-28T03:12:02;11.80;77.70
46926;DHT22;32667;48.248;-1.700;2022-12-28T03:14:41;11.80;77.70
46926;DHT22;32667;48.248;-1.700;2022-12-28T03:17:09;11.80;77.80
46926;DHT22;32667;48.248;-1.700;2022-12-28T03:19:56;11.80;77.70
46926;DHT22;32667;48.248;-1.700;2022-12-28T03:22:43;11.80;77.70
46926;DHT22;32667;48.248;-1.700;2022-12-28T03:25:29;11.80;77.70
46926;DHT22;32667;48.248;-1.700;2022-12-28T03:28:18;11.80;77.70
46926;DHT22;32667;48.248;-1.700;2022-12-28T03:31:12;11.80;77.60
46926;DHT22;32667;48.248;-1.700;2022-12-28T03:33:42;11.80;77.60
46926;DHT22;32667;48.248;-1.700;2022-12-28T03:41:37;11.80;77.70
46926;DHT22;32667;48.248;-1.700;2022-12-28T03:44:08;11.90;77.70
46926;DHT22;32667;48.248;-1.700;2022-12-28T03:47:09;11.90;77.70
46926;DHT22;32667;48.248;-1.700;2022-12-28T03:49:36;11.80;77.70
46926;DHT22;32667;48.248;-1.700;2022-12-28T03:52:02;11.80;77.70
46926;DHT22;32667;48.248;-1.700;2022-12-28T03:54:29;11.80;77.80
46926;DHT22;32667;48.248;-1.700;2022-12-28T03:56:57;11.80;77.90
46926;DHT22;32667;48.248;-1.700;2022-12-28T03:59:23;11.80;77.80
46926;DHT22;32667;48.248;-1.700;2022-12-28T04:01:48;11.80;78.40
46926;DHT22;32667;48.248;-1.700;2022-12-28T04:04:14;11.70;77.90
46926;DHT22;32667;48.248;-1.700;2022-12-28T04:06:40;11.70;77.90
46926;DHT22;32667;48.248;-1.700;2022-12-28T04:09:08;11.70;78.00
46926;DHT22;32667;48.248;-1.700;2022-12-28T04:11:34;11.70;78.00
46926;DHT22;32667;48.248;-1.700;2022-12-28T04:14:02;11.70;78.00
46926;DHT22;32667;48.248;-1.700;2022-12-28T04:16:30;11.70;78.10
46926;DHT22;32667;48.248;-1.700;2022-12-28T04:18:56;11.70;78.00
46926;DHT22;32667;48.248;-1.700;2022-12-28T04:21:23;11.70;78.10
46926;DHT22;32667;48.248;-1.700;2022-12-28T04:23:51;11.70;78.10
46926;DHT22;32667;48.248;-1.700;2022-12-28T04:26:17;11.70;78.10
46926;DHT22;32667;48.248;-1.700;2022-12-28T04:28:43;11.60;78.10
46926;DHT22;32667;48.248;-1.700;2022-12-28T04:31:14;11.60;78.20
46926;DHT22;32667;48.248;-1.700;2022-12-28T04:33:40;11.60;78.20
46926;DHT22;32667;48.248;-1.700;2022-12-28T04:36:10;11.60;78.20
46926;DHT22;32667;48.248;-1.700;2022-12-28T04:38:37;11.60;78.20
46926;DHT22;32667;48.248;-1.700;2022-12-28T04:41:04;11.50;78.20
46926;DHT22;32667;48.248;-1.700;2022-12-28T04:43:33;11.50;78.80
46926;DHT22;32667;48.248;-1.700;2022-12-28T04:46:01;11.50;78.20
46926;DHT22;32667;48.248;-1.700;2022-12-28T04:48:28;11.50;78.20
46926;DHT22;32667;48.248;-1.700;2022-12-28T04:50:54;11.50;78.20
46926;DHT22;32667;48.248;-1.700;2022-12-28T04:53:20;11.50;78.20
46926;DHT22;32667;48.248;-1.700;2022-12-28T04:55:49;11.50;78.30
46926;DHT22;32667;48.248;-1.700;2022-12-28T04:58:17;11.50;78.30
46926;DHT22;32667;48.248;-1.700;2022-12-28T05:00:43;11.50;78.30
46926;DHT22;32667;48.248;-1.700;2022-12-28T05:03:09;11.50;78.20
46926;DHT22;32667;48.248;-1.700;2022-12-28T05:05:38;11.50;78.20
46926;DHT22;32667;48.248;-1.700;2022-12-28T05:08:04;11.40;78.20
46926;DHT22;32667;48.248;-1.700;2022-12-28T05:10:30;11.50;78.20
46926;DHT22;32667;48.248;-1.700;2022-12-28T05:12:56;11.50;78.20
46926;DHT22;32667;48.248;-1.700;2022-12-28T05:15:22;11.50;78.20
46926;DHT22;32667;48.248;-1.700;2022-12-28T05:17:47;11.50;78.20
46926;DHT22;32667;48.248;-1.700;2022-12-28T05:20:13;11.50;78.20
46926;DHT22;32667;48.248;-1.700;2022-12-28T05:22:40;11.50;78.20
46926;DHT22;32667;48.248;-1.700;2022-12-28T05:25:06;11.50;78.20
46926;DHT22;32667;48.248;-1.700;2022-12-28T05:27:35;11.50;78.20
46926;DHT22;32667;48.248;-1.700;2022-12-28T05:30:00;11.50;78.20
46926;DHT22;32667;48.248;-1.700;2022-12-28T05:32:26;11.50;78.20
46926;DHT22;32667;48.248;-1.700;2022-12-28T05:34:52;11.50;78.20
46926;DHT22;32667;48.248;-1.700;2022-12-28T05:37:17;11.50;78.20
46926;DHT22;32667;48.248;-1.700;2022-12-28T05:39:43;11.50;78.20
46926;DHT22;32667;48.248;-1.700;2022-12-28T05:42:09;11.50;78.30
46926;DHT22;32667;48.248;-1.700;2022-12-28T05:44:35;11.50;78.30
46926;DHT22;32667;48.248;-1.700;2022-12-28T05:47:00;11.40;78.20
46926;DHT22;32667;48.248;-1.700;2022-12-28T05:49:26;11.50;78.40
46926;DHT22;32667;48.248;-1.700;2022-12-28T05:51:52;11.50;78.40
46926;DHT22;32667;48.248;-1.700;2022-12-28T05:54:18;11.50;78.30
46926;DHT22;32667;48.248;-1.700;2022-12-28T05:56:44;11.50;78.20
46926;DHT22;32667;48.248;-1.700;2022-12-28T05:59:10;11.50;78.20
46926;DHT22;32667;48.248;-1.700;2022-12-28T06:01:38;11.50;78.20
46926;DHT22;32667;48.248;-1.700;2022-12-28T06:04:07;11.60;78.20
46926;DHT22;32667;48.248;-1.700;2022-12-28T06:06:34;11.60;78.30
46926;DHT22;32667;48.248;-1.700;2022-12-28T06:09:00;11.50;78.20
46926;DHT22;32667;48.248;-1.700;2022-12-28T06:11:27;11.50;78.20
46926;DHT22;32667;48.248;-1.700;2022-12-28T06:13:54;11.50;78.20
46926;DHT22;32667;48.248;-1.700;2022-12-28T06:16:38;11.50;78.30
46926;DHT22;32667;48.248;-1.700;2022-12-28T06:19:07;11.50;78.30
46926;DHT22;32667;48.248;-1.700;2022-12-28T06:21:35;11.50;78.30
46926;DHT22;32667;48.248;-1.700;2022-12-28T06:24:04;11.50;78.20
46926;DHT22;32667;48.248;-1.700;2022-12-28T06:26:31;11.50;78.20
46926;DHT22;32667;48.248;-1.700;2022-12-28T06:28:58;11.50;78.30
46926;DHT22;32667;48.248;-1.700;2022-12-28T06:31:26;11.50;78.30
46926;DHT22;32667;48.248;-1.700;2022-12-28T06:33:53;11.50;78.30
46926;DHT22;32667;48.248;-1.700;2022-12-28T06:36:23;11.50;78.30
46926;DHT22;32667;48.248;-1.700;2022-12-28T06:38:50;11.60;78.30
46926;DHT22;32667;48.248;-1.700;2022-12-28T06:41:18;11.50;78.20
46926;DHT22;32667;48.248;-1.700;2022-12-28T06:43:45;11.50;78.20
46926;DHT22;32667;48.248;-1.700;2022-12-28T06:46:16;11.60;78.30
46926;DHT22;32667;48.248;-1.700;2022-12-28T06:48:42;11.60;78.30
46926;DHT22;32667;48.248;-1.700;2022-12-28T06:51:13;11.60;78.10
46926;DHT22;32667;48.248;-1.700;2022-12-28T06:53:39;11.60;78.20
46926;DHT22;32667;48.248;-1.700;2022-12-28T06:56:17;11.60;78.20
46926;DHT22;32667;48.248;-1.700;2022-12-28T06:58:43;11.60;78.20
46926;DHT22;32667;48.248;-1.700;2022-12-28T07:01:17;11.60;78.30
46926;DHT22;32667;48.248;-1.700;2022-12-28T07:03:45;11.60;78.30
46926;DHT22;32667;48.248;-1.700;2022-12-28T07:06:12;11.60;78.30
46926;DHT22;32667;48.248;-1.700;2022-12-28T07:08:38;11.50;78.20
46926;DHT22;32667;48.248;-1.700;2022-12-28T07:11:07;11.50;78.20
46926;DHT22;32667;48.248;-1.700;2022-12-28T07:13:33;11.50;78.30
46926;DHT22;32667;48.248;-1.700;2022-12-28T07:16:31;11.50;78.30
46926;DHT22;32667;48.248;-1.700;2022-12-28T07:18:58;11.50;78.30
46926;DHT22;32667;48.248;-1.700;2022-12-28T07:21:26;11.50;78.30
46926;DHT22;32667;48.248;-1.700;2022-12-28T07:23:53;11.50;78.20
46926;DHT22;32667;48.248;-1.700;2022-12-28T07:26:22;11.50;78.20
46926;DHT22;32667;48.248;-1.700;2022-12-28T07:28:52;11.40;78.30
46926;DHT22;32667;48.248;-1.700;2022-12-28T07:31:20;11.50;78.40
46926;DHT22;32667;48.248;-1.700;2022-12-28T07:33:47;11.40;78.30
46926;DHT22;32667;48.248;-1.700;2022-12-28T07:36:17;11.40;78.40
46926;DHT22;32667;48.248;-1.700;2022-12-28T07:38:44;11.40;78.40
46926;DHT22;32667;48.248;-1.700;2022-12-28T07:41:12;11.40;78.40
46926;DHT22;32667;48.248;-1.700;2022-12-28T07:43:38;11.30;78.40
46926;DHT22;32667;48.248;-1.700;2022-12-28T07:46:10;11.30;78.50
46926;DHT22;32667;48.248;-1.700;2022-12-28T07:48:39;11.30;78.60
46926;DHT22;32667;48.248;-1.700;2022-12-28T07:51:11;11.30;78.50
46926;DHT22;32667;48.248;-1.700;2022-12-28T07:53:37;11.30;78.60
46926;DHT22;32667;48.248;-1.700;2022-12-28T07:56:04;11.30;78.60
46926;DHT22;32667;48.248;-1.700;2022-12-28T07:58:33;11.30;78.60
46926;DHT22;32667;48.248;-1.700;2022-12-28T08:01:06;11.30;78.50
46926;DHT22;32667;48.248;-1.700;2022-12-28T08:03:33;11.30;78.50
46926;DHT22;32667;48.248;-1.700;2022-12-28T08:08:46;11.30;78.40
46926;DHT22;32667;48.248;-1.700;2022-12-28T08:11:18;11.30;78.40
46926;DHT22;32667;48.248;-1.700;2022-12-28T08:13:46;11.30;78.40
46926;DHT22;32667;48.248;-1.700;2022-12-28T08:16:13;11.30;78.40
46926;DHT22;32667;48.248;-1.700;2022-12-28T08:18:40;11.30;78.40
46926;DHT22;32667;48.248;-1.700;2022-12-28T08:21:11;11.30;78.40
46926;DHT22;32667;48.248;-1.700;2022-12-28T08:23:37;11.40;78.40
46926;DHT22;32667;48.248;-1.700;2022-12-28T08:26:18;11.30;78.30
46926;DHT22;32667;48.248;-1.700;2022-12-28T08:28:45;11.30;78.30
46926;DHT22;32667;48.248;-1.700;2022-12-28T08:31:17;11.40;78.90
46926;DHT22;32667;48.248;-1.700;2022-12-28T08:33:43;11.40;78.30
46926;DHT22;32667;48.248;-1.700;2022-12-28T08:36:10;11.40;78.20
46926;DHT22;32667;48.248;-1.700;2022-12-28T08:38:37;11.40;78.20
46926;DHT22;32667;48.248;-1.700;2022-12-28T08:41:06;11.40;78.20
46926;DHT22;32667;48.248;-1.700;2022-12-28T08:43:33;11.50;78.20
46926;DHT22;32667;48.248;-1.700;2022-12-28T08:46:02;11.50;78.20
46926;DHT22;32667;48.248;-1.700;2022-12-28T08:48:28;11.50;78.20
46926;DHT22;32667;48.248;-1.700;2022-12-28T08:50:54;11.50;78.10
46926;DHT22;32667;48.248;-1.700;2022-12-28T08:53:24;11.50;78.10
46926;DHT22;32667;48.248;-1.700;2022-12-28T08:55:50;11.60;78.10
46926;DHT22;32667;48.248;-1.700;2022-12-28T08:58:17;11.60;78.00
46926;DHT22;32667;48.248;-1.700;2022-12-28T09:00:43;11.60;77.90
46926;DHT22;32667;48.248;-1.700;2022-12-28T09:03:08;11.70;77.90
46926;DHT22;32667;48.248;-1.700;2022-12-28T09:05:38;11.70;77.90
46926;DHT22;32667;48.248;-1.700;2022-12-28T09:08:04;11.70;77.90
46926;DHT22;32667;48.248;-1.700;2022-12-28T09:10:30;11.70;77.80
46926;DHT22;32667;48.248;-1.700;2022-12-28T09:12:56;11.80;77.90
46926;DHT22;32667;48.248;-1.700;2022-12-28T09:15:22;11.80;77.80
46926;DHT22;32667;48.248;-1.700;2022-12-28T09:17:59;11.80;77.70
46926;DHT22;32667;48.248;-1.700;2022-12-28T09:20:25;11.80;77.70
46926;DHT22;32667;48.248;-1.700;2022-12-28T09:22:51;11.80;77.70
46926;DHT22;32667;48.248;-1.700;2022-12-28T09:25:16;11.90;78.30
46926;DHT22;32667;48.248;-1.700;2022-12-28T09:27:45;11.90;77.70
46926;DHT22;32667;48.248;-1.700;2022-12-28T09:30:11;11.90;77.60
46926;DHT22;32667;48.248;-1.700;2022-12-28T09:32:37;11.90;77.60
46926;DHT22;32667;48.248;-1.700;2022-12-28T09:35:03;12.00;77.60
46926;DHT22;32667;48.248;-1.700;2022-12-28T09:37:29;12.00;77.60
46926;DHT22;32667;48.248;-1.700;2022-12-28T09:39:57;12.10;77.60
46926;DHT22;32667;48.248;-1.700;2022-12-28T09:42:27;12.10;77.50
46926;DHT22;32667;48.248;-1.700;2022-12-28T09:45:04;12.10;77.50
46926;DHT22;32667;48.248;-1.700;2022-12-28T09:50:23;12.20;77.50
46926;DHT22;32667;48.248;-1.700;2022-12-28T09:55:44;12.20;77.30
46926;DHT22;32667;48.248;-1.700;2022-12-28T09:58:16;12.30;77.40
46926;DHT22;32667;48.248;-1.700;2022-12-28T10:00:52;12.30;77.40
46926;DHT22;32667;48.248;-1.700;2022-12-28T10:03:30;12.30;77.30
46926;DHT22;32667;48.248;-1.700;2022-12-28T10:05:57;12.30;77.20
46926;DHT22;32667;48.248;-1.700;2022-12-28T10:08:25;12.30;77.20
46926;DHT22;32667;48.248;-1.700;2022-12-28T10:10:52;12.30;77.20
46926;DHT22;32667;48.248;-1.700;2022-12-28T10:13:23;12.30;77.30
46926;DHT22;32667;48.248;-1.700;2022-12-28T10:15:51;12.30;77.20
46926;DHT22;32667;48.248;-1.700;2022-12-28T10:18:23;12.40;77.30
46926;DHT22;32667;48.248;-1.700;2022-12-28T10:20:50;12.40;77.20
46926;DHT22;32667;48.248;-1.700;2022-12-28T10:23:20;12.40;77.30
46926;DHT22;32667;48.248;-1.700;2022-12-28T10:25:49;12.40;77.20
46926;DHT22;32667;48.248;-1.700;2022-12-28T10:28:16;12.40;77.30
46926;DHT22;32667;48.248;-1.700;2022-12-28T10:30:47;12.40;77.30
46926;DHT22;32667;48.248;-1.700;2022-12-28T10:33:18;12.40;77.30
46926;DHT22;32667;48.248;-1.700;2022-12-28T10:35:51;12.40;77.30
46926;DHT22;32667;48.248;-1.700;2022-12-28T10:38:30;12.40;77.30
46926;DHT22;32667;48.248;-1.700;2022-12-28T10:41:09;12.40;77.30
46926;DHT22;32667;48.248;-1.700;2022-12-28T10:43:38;12.40;77.40
46926;DHT22;32667;48.248;-1.700;2022-12-28T10:46:19;12.40;77.40
46926;DHT22;32667;48.248;-1.700;2022-12-28T10:48:54;12.40;77.50
46926;DHT22;32667;48.248;-1.700;2022-12-28T10:51:26;12.40;77.50
46926;DHT22;32667;48.248;-1.700;2022-12-28T10:53:55;12.40;77.50
46926;DHT22;32667;48.248;-1.700;2022-12-28T10:58:53;12.30;77.50
46926;DHT22;32667;48.248;-1.700;2022-12-28T11:01:28;12.30;77.50
46926;DHT22;32667;48.248;-1.700;2022-12-28T11:04:01;12.30;77.60
46926;DHT22;32667;48.248;-1.700;2022-12-28T11:06:30;12.30;77.60
46926;DHT22;32667;48.248;-1.700;2022-12-28T11:09:15;12.30;77.60
46926;DHT22;32667;48.248;-1.700;2022-12-28T11:11:44;12.30;77.60
46926;DHT22;32667;48.248;-1.700;2022-12-28T11:16:47;12.20;77.60
46926;DHT22;32667;48.248;-1.700;2022-12-28T11:19:12;12.30;77.70
46926;DHT22;32667;48.248;-1.700;2022-12-28T11:21:42;12.20;77.60
46926;DHT22;32667;48.248;-1.700;2022-12-28T11:24:16;12.20;77.60
46926;DHT22;32667;48.248;-1.700;2022-12-28T11:26:44;12.20;77.60
46926;DHT22;32667;48.248;-1.700;2022-12-28T11:29:13;12.30;77.70
46926;DHT22;32667;48.248;-1.700;2022-12-28T11:31:51;12.20;77.60
46926;DHT22;32667;48.248;-1.700;2022-12-28T11:34:22;12.30;77.70
46926;DHT22;32667;48.248;-1.700;2022-12-28T11:36:49;12.30;77.60
46926;DHT22;32667;48.248;-1.700;2022-12-28T11:41:51;12.30;77.60
46926;DHT22;32667;48.248;-1.700;2022-12-28T11:49:30;12.30;77.60
46926;DHT22;32667;48.248;-1.700;2022-12-28T11:54:57;12.40;77.60
46926;DHT22;32667;48.248;-1.700;2022-12-28T12:02:57;12.40;77.50
46926;DHT22;32667;48.248;-1.700;2022-12-28T12:10:48;12.40;77.40
46926;DHT22;32667;48.248;-1.700;2022-12-28T12:13:41;12.40;77.40
46926;DHT22;32667;48.248;-1.700;2022-12-28T12:16:27;12.50;77.50
46926;DHT22;32667;48.248;-1.700;2022-12-28T12:18:57;12.40;77.50
46926;DHT22;32667;48.248;-1.700;2022-12-28T12:21:28;12.40;77.50
46926;DHT22;32667;48.248;-1.700;2022-12-28T12:24:07;12.50;77.50
46926;DHT22;32667;48.248;-1.700;2022-12-28T12:26:49;12.50;77.50
46926;DHT22;32667;48.248;-1.700;2022-12-28T12:29:27;12.50;77.50
46926;DHT22;32667;48.248;-1.700;2022-12-28T12:32:24;12.50;77.50
46926;DHT22;32667;48.248;-1.700;2022-12-28T12:35:02;12.50;77.50
46926;DHT22;32667;48.248;-1.700;2022-12-28T12:46:41;12.50;78.20
46926;DHT22;32667;48.248;-1.700;2022-12-28T12:54:53;12.50;77.40
46926;DHT22;32667;48.248;-1.700;2022-12-28T13:00:10;12.50;77.40
46926;DHT22;32667;48.248;-1.700;2022-12-28T13:05:20;12.60;77.50
46926;DHT22;32667;48.248;-1.700;2022-12-28T13:07:47;12.60;77.50
46926;DHT22;32667;48.248;-1.700;2022-12-28T13:10:18;12.60;77.50
46926;DHT22;32667;48.248;-1.700;2022-12-28T13:12:47;12.60;77.50
46926;DHT22;32667;48.248;-1.700;2022-12-28T13:15:16;12.60;77.40
46926;DHT22;32667;48.248;-1.700;2022-12-28T13:20:27;12.60;77.50
46926;DHT22;32667;48.248;-1.700;2022-12-28T13:22:53;12.70;78.10
46926;DHT22;32667;48.248;-1.700;2022-12-28T13:25:26;12.70;77.50
46926;DHT22;32667;48.248;-1.700;2022-12-28T13:27:52;12.70;77.50
46926;DHT22;32667;48.248;-1.700;2022-12-28T13:30:20;12.70;77.50
46926;DHT22;32667;48.248;-1.700;2022-12-28T13:32:58;12.70;77.40
46926;DHT22;32667;48.248;-1.700;2022-12-28T13:35:27;12.70;77.50
46926;DHT22;32667;48.248;-1.700;2022-12-28T13:38:12;12.80;77.50
46926;DHT22;32667;48.248;-1.700;2022-12-28T13:40:39;12.80;77.50
46926;DHT22;32667;48.248;-1.700;2022-12-28T13:45:56;12.80;77.40
46926;DHT22;32667;48.248;-1.700;2022-12-28T13:48:25;12.80;77.40
46926;DHT22;32667;48.248;-1.700;2022-12-28T13:50:53;12.80;77.40
46926;DHT22;32667;48.248;-1.700;2022-12-28T13:53:23;12.80;77.30
46926;DHT22;32667;48.248;-1.700;2022-12-28T13:56:04;12.80;77.40
46926;DHT22;32667;48.248;-1.700;2022-12-28T13:58:44;12.80;77.40
46926;DHT22;32667;48.248;-1.700;2022-12-28T14:01:18;12.80;77.40
46926;DHT22;32667;48.248;-1.700;2022-12-28T14:03:45;12.80;77.40
46926;DHT22;32667;48.248;-1.700;2022-12-28T14:06:14;12.80;77.40
46926;DHT22;32667;48.248;-1.700;2022-12-28T14:08:41;12.80;77.50
46926;DHT22;32667;48.248;-1.700;2022-12-28T14:11:09;12.90;77.50
46926;DHT22;32667;48.248;-1.700;2022-12-28T14:13:36;12.90;77.50
46926;DHT22;32667;48.248;-1.700;2022-12-28T14:16:03;12.80;77.40
46926;DHT22;32667;48.248;-1.700;2022-12-28T14:18:38;12.80;77.40
46926;DHT22;32667;48.248;-1.700;2022-12-28T14:21:04;12.80;77.40
46926;DHT22;32667;48.248;-1.700;2022-12-28T14:23:34;12.80;77.50
46926;DHT22;32667;48.248;-1.700;2022-12-28T14:26:05;12.80;77.50
46926;DHT22;32667;48.248;-1.700;2022-12-28T14:28:42;12.80;77.50
46926;DHT22;32667;48.248;-1.700;2022-12-28T14:31:11;12.80;77.50
46926;DHT22;32667;48.248;-1.700;2022-12-28T14:33:52;12.80;77.60
46926;DHT22;32667;48.248;-1.700;2022-12-28T14:36:21;12.80;77.60
46926;DHT22;32667;48.248;-1.700;2022-12-28T14:38:52;12.90;77.50
46926;DHT22;32667;48.248;-1.700;2022-12-28T14:41:44;12.90;77.50
46926;DHT22;32667;48.248;-1.700;2022-12-28T14:44:24;12.90;77.40
46926;DHT22;32667;48.248;-1.700;2022-12-28T14:46:50;12.90;77.50
46926;DHT22;32667;48.248;-1.700;2022-12-28T14:52:22;12.90;77.60
46926;DHT22;32667;48.248;-1.700;2022-12-28T14:54:46;12.90;77.50
46926;DHT22;32667;48.248;-1.700;2022-12-28T14:57:36;12.90;77.40
46926;DHT22;32667;48.248;-1.700;2022-12-28T15:00:35;12.90;77.50
46926;DHT22;32667;48.248;-1.700;2022-12-28T15:03:15;12.90;77.40
46926;DHT22;32667;48.248;-1.700;2022-12-28T15:05:50;12.90;77.50
46926;DHT22;32667;48.248;-1.700;2022-12-28T15:08:16;12.90;77.50
46926;DHT22;32667;48.248;-1.700;2022-12-28T15:10:49;12.90;77.50
46926;DHT22;32667;48.248;-1.700;2022-12-28T15:13:15;12.90;77.50
46926;DHT22;32667;48.248;-1.700;2022-12-28T15:15:41;12.90;77.50
46926;DHT22;32667;48.248;-1.700;2022-12-28T15:18:07;13.00;77.50
46926;DHT22;32667;48.248;-1.700;2022-12-28T15:20:37;13.00;77.50
46926;DHT22;32667;48.248;-1.700;2022-12-28T15:23:03;13.00;77.50
46926;DHT22;32667;48.248;-1.700;2022-12-28T15:25:32;13.10;77.50
46926;DHT22;32667;48.248;-1.700;2022-12-28T15:27:58;13.10;77.50
46926;DHT22;32667;48.248;-1.700;2022-12-28T15:30:23;13.10;77.40
46926;DHT22;32667;48.248;-1.700;2022-12-28T15:32:49;13.10;77.50
46926;DHT22;32667;48.248;-1.700;2022-12-28T15:35:17;13.10;77.50
46926;DHT22;32667;48.248;-1.700;2022-12-28T15:37:43;13.10;77.50
46926;DHT22;32667;48.248;-1.700;2022-12-28T15:40:09;13.10;77.50
46926;DHT22;32667;48.248;-1.700;2022-12-28T15:42:35;13.10;77.40
46926;DHT22;32667;48.248;-1.700;2022-12-28T15:45:01;13.10;77.40
46926;DHT22;32667;48.248;-1.700;2022-12-28T15:47:27;13.10;77.40
46926;DHT22;32667;48.248;-1.700;2022-12-28T15:49:52;13.20;77.40
46926;DHT22;32667;48.248;-1.700;2022-12-28T15:52:18;13.20;77.40
46926;DHT22;32667;48.248;-1.700;2022-12-28T15:54:44;13.20;77.40
46926;DHT22;32667;48.248;-1.700;2022-12-28T15:57:12;13.20;77.40
46926;DHT22;32667;48.248;-1.700;2022-12-28T15:59:39;13.20;77.40
46926;DHT22;32667;48.248;-1.700;2022-12-28T16:02:05;13.20;77.50
46926;DHT22;32667;48.248;-1.700;2022-12-28T16:04:31;13.20;77.50
46926;DHT22;32667;48.248;-1.700;2022-12-28T16:06:59;13.20;77.50
46926;DHT22;32667;48.248;-1.700;2022-12-28T16:09:25;13.20;77.50
46926;DHT22;32667;48.248;-1.700;2022-12-28T16:11:50;13.20;77.50
46926;DHT22;32667;48.248;-1.700;2022-12-28T16:14:17;13.20;77.50
46926;DHT22;32667;48.248;-1.700;2022-12-28T16:16:43;13.20;77.50
46926;DHT22;32667;48.248;-1.700;2022-12-28T16:19:14;13.20;77.50
46926;DHT22;32667;48.248;-1.700;2022-12-28T16:21:41;13.20;77.50
46926;DHT22;32667;48.248;-1.700;2022-12-28T16:24:07;13.20;77.50
46926;DHT22;32667;48.248;-1.700;2022-12-28T16:26:35;13.20;77.50
46926;DHT22;32667;48.248;-1.700;2022-12-28T16:29:04;13.20;77.50
46926;DHT22;32667;48.248;-1.700;2022-12-28T16:31:35;13.20;77.50
46926;DHT22;32667;48.248;-1.700;2022-12-28T16:34:08;13.20;77.60
46926;DHT22;32667;48.248;-1.700;2022-12-28T16:36:34;13.20;77.60
46926;DHT22;32667;48.248;-1.700;2022-12-28T16:39:05;13.20;77.60
46926;DHT22;32667;48.248;-1.700;2022-12-28T16:41:33;13.20;77.60
46926;DHT22;32667;48.248;-1.700;2022-12-28T16:44:03;13.20;77.60
46926;DHT22;32667;48.248;-1.700;2022-12-28T16:46:30;13.10;77.60
46926;DHT22;32667;48.248;-1.700;2022-12-28T16:48:57;13.10;77.60
46926;DHT22;32667;48.248;-1.700;2022-12-28T16:51:23;13.10;77.60
46926;DHT22;32667;48.248;-1.700;2022-12-28T16:53:49;13.20;77.70
46926;DHT22;32667;48.248;-1.700;2022-12-28T16:56:17;13.10;77.60
46926;DHT22;32667;48.248;-1.700;2022-12-28T16:58:43;13.10;78.30
46926;DHT22;32667;48.248;-1.700;2022-12-28T17:01:09;13.10;77.70
46926;DHT22;32667;48.248;-1.700;2022-12-28T17:03:37;13.10;77.70
46926;DHT22;32667;48.248;-1.700;2022-12-28T17:06:03;13.10;77.70
46926;DHT22;32667;48.248;-1.700;2022-12-28T17:08:30;13.10;77.70
46926;DHT22;32667;48.248;-1.700;2022-12-28T17:10:56;13.10;77.80
46926;DHT22;32667;48.248;-1.700;2022-12-28T17:13:22;13.10;77.80